LFMU 301030Z AUTO 15010KT 110V170 9999 FEW025 BKN046 22/14 Q1017

ElémentsDécodage
LFMU Station météo située sur l'aérodrome de BEZIERS Vias
301030Z émis le 30 du mois à 10h30 UTC
AUTO Bulletin édité par un automate
15010KT vent du 150°, 10 noeuds
110V170 vent de direction variable entre 110° et 170°
9999 visibilité horizontale supérieure à 10 Km
FEW025 nuages rares (1/8 à 2/8) à 2500 pieds
BKN046 nuages morcelés (5/8 à 7/8) à 4600 pieds
22/14 température 22°C, point de rosée 14°C
 soit une humidité relative de 61%
Q1017 la pression au niveau de la mer (QNH) est de 1017 hPa